createdAt,value
2019-02-15T00:01:57.183Z,6.20
2019-02-15T00:04:28.482Z,6.20
2019-02-15T00:06:58.787Z,6.20
2019-02-15T00:09:29.174Z,6.20
2019-02-15T00:11:59.710Z,6.20
2019-02-15T00:14:41.775Z,6.30
2019-02-15T00:17:12.465Z,6.20
2019-02-15T00:19:46.263Z,6.10
2019-02-15T00:22:16.570Z,6.20
2019-02-15T00:24:47.439Z,6.20
2019-02-15T00:27:17.895Z,6.20
2019-02-15T00:29:48.387Z,6.20
2019-02-15T00:32:18.695Z,6.20
2019-02-15T00:34:49.243Z,6.20
2019-02-15T00:37:19.618Z,6.20
2019-02-15T00:39:50.082Z,6.20
2019-02-15T00:42:20.629Z,6.20
2019-02-15T00:44:50.965Z,6.20
2019-02-15T00:47:46.018Z,6.20
2019-02-15T00:50:41.203Z,6.20
2019-02-15T00:53:20.970Z,6.10
2019-02-15T00:56:10.245Z,6.20
2019-02-15T00:58:57.978Z,6.20
2019-02-15T01:01:50.484Z,6.10
2019-02-15T01:04:38.167Z,6.10
2019-02-15T01:07:25.891Z,6.10
2019-02-15T01:10:06.891Z,6.00
2019-02-15T01:12:46.206Z,6.10
2019-02-15T01:15:16.743Z,6.00
2019-02-15T01:17:47.062Z,6.10
2019-02-15T01:20:17.347Z,6.10
2019-02-15T01:22:47.671Z,6.10
2019-02-15T01:25:18.137Z,6.10
2019-02-15T01:28:16.592Z,6.10
2019-02-15T01:31:08.890Z,6.10
2019-02-15T01:33:49.281Z,6.10
2019-02-15T01:36:27.640Z,6.10
2019-02-15T01:39:17.929Z,6.10
2019-02-15T01:41:58.815Z,6.00
2019-02-15T01:44:33.791Z,6.00
2019-02-15T01:47:17.347Z,6.00
2019-02-15T01:49:47.658Z,6.10
2019-02-15T01:52:18.123Z,6.00
2019-02-15T01:54:48.426Z,6.10
2019-02-15T01:57:18.722Z,6.00
2019-02-15T01:59:49.012Z,6.10
2019-02-15T02:02:19.743Z,6.00
2019-02-15T02:04:50.235Z,6.00
2019-02-15T02:07:20.573Z,6.00
2019-02-15T02:09:50.923Z,5.90
2019-02-15T02:12:21.228Z,6.00
2019-02-15T02:14:51.547Z,6.00
2019-02-15T02:17:22.353Z,6.00
2019-02-15T02:19:52.649Z,6.00
2019-02-15T02:22:23.086Z,5.90
2019-02-15T02:24:53.427Z,5.90
2019-02-15T02:27:23.734Z,5.90
2019-02-15T02:29:54.258Z,5.90
2019-02-15T02:32:24.798Z,5.90
2019-02-15T02:34:55.261Z,6.00
2019-02-15T02:37:25.619Z,5.90
2019-02-15T02:39:56.047Z,5.90
2019-02-15T02:42:26.347Z,5.90
2019-02-15T02:44:56.644Z,5.90
2019-02-15T02:47:27.366Z,5.90
2019-02-15T02:49:57.680Z,5.90
2019-02-15T02:52:28.209Z,5.90
2019-02-15T02:54:58.560Z,5.90
2019-02-15T02:57:29.087Z,5.90
2019-02-15T02:59:59.384Z,5.90
2019-02-15T03:02:30.175Z,5.90
2019-02-15T03:05:00.504Z,5.90
2019-02-15T03:07:30.931Z,6.00
2019-02-15T03:10:01.233Z,6.00
2019-02-15T03:12:31.567Z,6.00
2019-02-15T03:15:02.092Z,6.00
2019-02-15T03:17:33.639Z,6.00
2019-02-15T03:20:04.352Z,6.00
2019-02-15T03:22:34.665Z,5.90
2019-02-15T03:25:05.385Z,5.90
2019-02-15T03:27:35.768Z,6.00
2019-02-15T03:30:06.700Z,6.00
2019-02-15T03:32:37.249Z,5.90
2019-02-15T03:35:08.160Z,5.90
2019-02-15T03:38:00.434Z,5.90
2019-02-15T03:40:35.470Z,5.90
2019-02-15T03:43:05.895Z,5.80
2019-02-15T03:45:36.486Z,5.80
2019-02-15T03:48:06.824Z,5.90
2019-02-15T03:50:37.218Z,5.90
2019-02-15T03:53:07.523Z,5.90
2019-02-15T03:55:37.908Z,5.90
2019-02-15T03:58:08.219Z,5.40
2019-02-15T04:00:38.596Z,5.90
2019-02-15T04:03:09.115Z,5.90
2019-02-15T04:05:39.438Z,5.90
2019-02-15T04:08:09.878Z,5.80
2019-02-15T04:10:40.171Z,5.80
2019-02-15T04:13:10.493Z,5.80
2019-02-15T04:15:41.034Z,5.70
2019-02-15T04:18:11.548Z,5.80
2019-02-15T04:20:41.995Z,5.80
2019-02-15T04:23:12.291Z,5.80
2019-02-15T04:25:42.607Z,5.80
2019-02-15T04:28:13.104Z,5.70
2019-02-15T04:30:43.428Z,5.70
2019-02-15T04:33:14.159Z,5.80
2019-02-15T04:35:44.531Z,5.80
2019-02-15T04:38:14.944Z,5.80
2019-02-15T04:40:45.235Z,5.80
2019-02-15T04:43:15.551Z,5.80
2019-02-15T04:45:46.043Z,5.80
2019-02-15T04:48:16.529Z,5.80
2019-02-15T04:50:46.928Z,5.80
2019-02-15T04:53:17.241Z,5.70
2019-02-15T04:55:47.607Z,5.70
2019-02-15T04:58:18.159Z,5.80
2019-02-15T05:00:48.442Z,5.80
2019-02-15T05:03:19.655Z,5.80
2019-02-15T05:05:49.964Z,5.80
2019-02-15T05:08:20.377Z,5.70
2019-02-15T05:10:50.659Z,5.70
2019-02-15T05:13:21.266Z,5.60
2019-02-15T05:15:51.586Z,5.60
2019-02-15T05:18:22.163Z,5.60
2019-02-15T05:20:52.491Z,5.60
2019-02-15T05:23:22.993Z,5.50
2019-02-15T05:25:53.296Z,5.60
2019-02-15T05:28:23.627Z,5.50
2019-02-15T05:30:54.144Z,5.50
2019-02-15T05:33:24.613Z,5.60
2019-02-15T05:35:55.131Z,5.50
2019-02-15T05:38:26.324Z,5.50
2019-02-15T05:40:56.850Z,5.50
2019-02-15T05:43:27.199Z,5.50
2019-02-15T05:45:57.571Z,5.60
2019-02-15T05:48:28.183Z,5.60
2019-02-15T05:50:58.483Z,5.60
2019-02-15T05:53:28.887Z,5.60
2019-02-15T05:55:59.192Z,5.70
2019-02-15T05:58:29.499Z,5.70
2019-02-15T06:00:59.840Z,5.70
2019-02-15T06:03:30.403Z,5.60
2019-02-15T06:06:00.702Z,5.50
2019-02-15T06:08:31.398Z,5.50
2019-02-15T06:11:07.183Z,5.60
2019-02-15T06:13:33.771Z,5.60
2019-02-15T06:16:04.074Z,5.60
2019-02-15T06:18:34.712Z,5.70
2019-02-15T06:21:05.103Z,5.60
2019-02-15T06:23:35.424Z,5.60
2019-02-15T06:26:05.756Z,5.60
2019-02-15T06:28:36.211Z,5.60
2019-02-15T06:31:06.530Z,5.60
2019-02-15T06:33:37.151Z,5.60
2019-02-15T06:36:07.455Z,5.60
2019-02-15T06:38:37.985Z,5.60
2019-02-15T06:41:08.322Z,5.50
2019-02-15T06:43:38.632Z,5.60
2019-02-15T06:46:08.962Z,5.60
2019-02-15T06:48:39.527Z,5.50
2019-02-15T06:51:09.988Z,5.50
2019-02-15T06:53:40.323Z,5.40
2019-02-15T06:56:10.629Z,5.40
2019-02-15T06:58:52.601Z,5.40
2019-02-15T07:01:37.926Z,5.40
2019-02-15T07:04:21.259Z,5.50
2019-02-15T07:06:51.551Z,5.50
2019-02-15T07:09:22.120Z,5.40
2019-02-15T07:11:52.419Z,5.40
2019-02-15T07:14:22.794Z,5.40
2019-02-15T07:16:53.079Z,5.40
2019-02-15T07:19:23.570Z,5.50
2019-02-15T07:21:54.011Z,5.50
2019-02-15T07:24:24.339Z,5.60
2019-02-15T07:26:55.814Z,5.50
2019-02-15T07:29:26.115Z,5.50
2019-02-15T07:31:56.408Z,5.50
2019-02-15T07:34:27.100Z,5.60
2019-02-15T07:36:57.387Z,5.60
2019-02-15T07:39:27.703Z,5.60
2019-02-15T07:41:58.182Z,5.60
2019-02-15T07:44:28.511Z,5.60
2019-02-15T07:46:59.916Z,5.60
2019-02-15T07:49:30.397Z,5.60
2019-02-15T07:52:00.711Z,5.60
2019-02-15T07:54:31.167Z,5.60
2019-02-15T07:57:01.461Z,5.60
2019-02-15T07:59:32.015Z,5.70
2019-02-15T08:02:02.378Z,5.60
2019-02-15T08:04:32.790Z,5.50
2019-02-15T08:07:03.079Z,5.50
2019-02-15T08:09:33.398Z,5.50
2019-02-15T08:12:03.782Z,5.50
2019-02-15T08:14:34.088Z,5.50
2019-02-15T08:17:04.404Z,5.40
2019-02-15T08:19:35.027Z,5.50
2019-02-15T08:22:05.319Z,5.40
2019-02-15T08:24:35.667Z,5.40
2019-02-15T08:27:06.040Z,5.30
2019-02-15T08:29:36.354Z,5.30
2019-02-15T08:32:06.655Z,5.40
2019-02-15T08:34:38.407Z,5.20
2019-02-15T08:37:08.730Z,5.20
2019-02-15T08:39:39.178Z,5.20
2019-02-15T08:42:09.519Z,4.80
2019-02-15T08:44:39.958Z,5.40
2019-02-15T08:47:10.258Z,5.50
2019-02-15T08:49:40.945Z,5.60
2019-02-15T08:52:11.228Z,5.60
2019-02-15T08:54:41.548Z,5.60
2019-02-15T08:57:12.009Z,5.60
2019-02-15T08:59:42.357Z,5.60
2019-02-15T09:02:20.008Z,5.70
2019-02-15T09:04:50.491Z,5.70
2019-02-15T09:07:21.019Z,5.80
2019-02-15T09:09:51.363Z,5.90
2019-02-15T09:12:21.634Z,5.70
2019-02-15T09:14:52.401Z,5.70
2019-02-15T09:17:22.692Z,5.90
2019-02-15T09:19:53.376Z,5.80
2019-02-15T09:22:23.687Z,5.80
2019-02-15T09:24:54.199Z,6.00
2019-02-15T09:27:41.506Z,5.90
2019-02-15T09:30:13.399Z,6.00
2019-02-15T09:32:43.690Z,6.10
2019-02-15T09:35:14.383Z,6.10
2019-02-15T09:37:44.662Z,6.20
2019-02-15T09:40:15.007Z,6.40
2019-02-15T09:42:45.320Z,6.30
2019-02-15T09:45:15.659Z,6.40
2019-02-15T09:47:46.028Z,6.60
2019-02-15T09:50:16.571Z,6.60
2019-02-15T09:52:47.063Z,6.70
2019-02-15T09:55:17.375Z,6.90
2019-02-15T09:57:47.677Z,6.90
2019-02-15T10:00:18.183Z,7.00
2019-02-15T10:02:48.483Z,6.80
2019-02-15T10:05:19.239Z,6.80
2019-02-15T10:07:49.541Z,6.90
2019-02-15T10:10:21.049Z,6.80
2019-02-15T10:12:51.362Z,6.80
2019-02-15T10:15:21.686Z,6.80
2019-02-15T10:17:52.137Z,6.80
2019-02-15T10:20:23.646Z,6.70
2019-02-15T10:22:54.159Z,6.80
2019-02-15T10:25:24.462Z,6.70
2019-02-15T10:27:54.911Z,6.70
2019-02-15T10:30:25.199Z,6.50
2019-02-15T10:32:55.539Z,6.50
2019-02-15T10:35:26.311Z,6.50
2019-02-15T10:37:56.635Z,6.40
2019-02-15T10:40:27.007Z,6.40
2019-02-15T10:42:57.391Z,6.30
2019-02-15T10:45:27.723Z,6.20
2019-02-15T10:47:58.283Z,6.00
2019-02-15T10:50:29.119Z,6.00
2019-02-15T10:52:59.602Z,6.00
2019-02-15T10:55:29.883Z,6.00
2019-02-15T10:58:00.428Z,6.00
2019-02-15T11:00:31.699Z,5.90
2019-02-15T11:03:02.154Z,5.80
2019-02-15T11:05:33.023Z,5.60
2019-02-15T11:08:03.370Z,5.70
2019-02-15T11:10:33.685Z,5.60
2019-02-15T11:13:04.220Z,5.60
2019-02-15T11:15:34.546Z,5.50
2019-02-15T11:18:07.740Z,5.50
2019-02-15T11:20:38.268Z,5.60
2019-02-15T11:23:08.621Z,5.10
2019-02-15T11:25:39.139Z,5.80
2019-02-15T11:28:09.420Z,5.70
2019-02-15T11:30:39.740Z,5.70
2019-02-15T11:33:10.380Z,5.80
2019-02-15T11:35:40.843Z,5.80
2019-02-15T11:38:11.308Z,5.80
2019-02-15T11:40:41.635Z,5.70
2019-02-15T11:43:12.148Z,5.50
2019-02-15T11:45:42.457Z,5.60
2019-02-15T11:48:13.067Z,5.60
2019-02-15T11:50:43.691Z,5.70
2019-02-15T11:53:14.161Z,5.60
2019-02-15T11:55:44.474Z,5.70
2019-02-15T11:58:14.891Z,5.60
2019-02-15T12:00:45.195Z,5.50
2019-02-15T12:03:15.478Z,5.30
2019-02-15T12:05:46.030Z,5.20
2019-02-15T12:08:16.366Z,5.20
2019-02-15T12:10:46.668Z,5.20
2019-02-15T12:13:17.011Z,5.20
2019-02-15T12:15:47.369Z,5.30
2019-02-15T12:18:17.651Z,5.20
2019-02-15T12:20:48.150Z,5.30
2019-02-15T12:23:18.445Z,5.30
2019-02-15T12:25:49.002Z,5.30
2019-02-15T12:28:19.315Z,5.20
2019-02-15T12:30:49.622Z,5.30
2019-02-15T12:33:19.978Z,5.30
2019-02-15T12:35:50.455Z,5.40
2019-02-15T12:38:20.731Z,5.50
2019-02-15T12:40:51.195Z,5.50
2019-02-15T12:43:21.559Z,5.50
2019-02-15T12:45:52.101Z,5.50
2019-02-15T12:48:22.435Z,5.50
2019-02-15T12:50:54.055Z,5.40
2019-02-15T12:53:24.354Z,5.20
2019-02-15T12:55:54.663Z,5.20
2019-02-15T12:58:25.111Z,5.20
2019-02-15T13:00:55.431Z,5.10
2019-02-15T13:03:25.778Z,5.00
2019-02-15T13:05:56.267Z,4.80
2019-02-15T13:08:26.561Z,4.70
2019-02-15T13:10:58.055Z,4.70
2019-02-15T13:13:28.340Z,4.70
2019-02-15T13:15:58.658Z,4.70
2019-02-15T13:18:29.191Z,4.80
2019-02-15T13:20:59.635Z,4.70
2019-02-15T13:23:30.934Z,4.70
2019-02-15T13:26:08.318Z,4.60
2019-02-15T13:28:33.195Z,4.60
2019-02-15T13:31:03.507Z,4.50
2019-02-15T13:33:34.039Z,4.60
2019-02-15T13:36:04.609Z,4.50
2019-02-15T13:38:34.958Z,4.60
2019-02-15T13:41:05.269Z,4.60
2019-02-15T13:43:35.592Z,4.70
2019-02-15T13:46:06.087Z,4.60
2019-02-15T13:48:36.371Z,4.70
2019-02-15T13:51:06.971Z,4.60
2019-02-15T13:53:37.364Z,4.60
2019-02-15T13:56:07.663Z,4.60
2019-02-15T13:58:37.991Z,4.70
2019-02-15T14:01:08.375Z,4.60
2019-02-15T14:03:38.699Z,4.50
2019-02-15T14:06:09.197Z,4.60
2019-02-15T14:08:39.491Z,4.60
2019-02-15T14:11:09.826Z,4.40
2019-02-15T14:13:40.155Z,4.50
2019-02-15T14:16:10.482Z,4.30
2019-02-15T14:18:41.026Z,4.10
2019-02-15T14:21:11.555Z,4.30
2019-02-15T14:23:42.075Z,4.20
2019-02-15T14:26:12.399Z,4.20
2019-02-15T14:28:42.678Z,4.20
2019-02-15T14:31:13.142Z,4.20
2019-02-15T14:33:43.443Z,4.20
2019-02-15T14:36:14.197Z,4.00
2019-02-15T14:38:44.532Z,4.10
2019-02-15T14:41:14.868Z,4.00
2019-02-15T14:43:45.171Z,4.00
2019-02-15T14:46:15.479Z,4.10
2019-02-15T14:48:45.827Z,4.30
2019-02-15T14:51:16.354Z,4.40
2019-02-15T14:53:46.666Z,4.40
2019-02-15T14:56:17.255Z,4.50
2019-02-15T14:58:47.570Z,4.40
2019-02-15T15:01:18.131Z,4.40
2019-02-15T15:03:48.431Z,4.50
2019-02-15T15:06:19.126Z,4.50
2019-02-15T15:08:49.417Z,4.40
2019-02-15T15:11:19.723Z,4.40
2019-02-15T15:13:50.283Z,4.30
2019-02-15T15:16:20.587Z,4.20
2019-02-15T15:18:51.220Z,4.20
2019-02-15T15:21:21.710Z,4.20
2019-02-15T15:23:52.005Z,4.00
2019-02-15T15:26:22.339Z,4.00
2019-02-15T15:28:52.643Z,3.90
2019-02-15T15:31:23.171Z,4.00
2019-02-15T15:33:53.539Z,3.90
2019-02-15T15:36:24.297Z,3.90
2019-02-15T15:38:54.603Z,3.90
2019-02-15T15:41:24.951Z,3.80
2019-02-15T15:43:55.269Z,3.70
2019-02-15T15:46:25.571Z,3.80
2019-02-15T15:48:56.114Z,3.70
2019-02-15T15:51:26.668Z,3.70
2019-02-15T15:53:57.047Z,3.60
2019-02-15T15:56:27.388Z,3.70
2019-02-15T15:58:57.992Z,3.70
2019-02-15T16:01:28.305Z,3.70
2019-02-15T16:03:58.614Z,3.60
2019-02-15T16:06:29.287Z,3.60
2019-02-15T16:08:59.624Z,3.50
2019-02-15T16:11:29.963Z,3.50
2019-02-15T16:14:00.266Z,3.50
2019-02-15T16:16:30.591Z,3.50
2019-02-15T16:19:00.955Z,3.40
2019-02-15T16:21:31.421Z,3.40
2019-02-15T16:24:01.721Z,3.40
2019-02-15T16:26:32.076Z,3.40
2019-02-15T16:29:02.357Z,3.40
2019-02-15T16:31:32.671Z,3.40
2019-02-15T16:34:02.990Z,3.30
2019-02-15T16:36:33.547Z,3.30
2019-02-15T16:39:04.986Z,3.30
2019-02-15T16:41:35.360Z,3.30
2019-02-15T16:44:05.715Z,3.30
2019-02-15T16:46:36.034Z,3.20
2019-02-15T16:49:06.361Z,3.20
2019-02-15T16:51:37.118Z,3.30
2019-02-15T16:54:07.436Z,3.30
2019-02-15T16:56:37.711Z,3.30
2019-02-15T16:59:08.220Z,3.30
2019-02-15T17:01:38.559Z,3.30
2019-02-15T17:04:08.891Z,3.20
2019-02-15T17:06:39.384Z,3.30
2019-02-15T17:09:16.700Z,3.30
2019-02-15T17:11:47.011Z,3.30
2019-02-15T17:14:17.551Z,3.30
2019-02-15T17:16:47.889Z,3.20
2019-02-15T17:19:18.388Z,3.30
2019-02-15T17:21:48.856Z,3.30
2019-02-15T17:24:19.425Z,3.40
2019-02-15T17:26:49.712Z,3.40
2019-02-15T17:29:20.155Z,3.40
2019-02-15T17:31:50.473Z,3.40
2019-02-15T17:34:20.974Z,3.40
2019-02-15T17:36:53.208Z,3.40
2019-02-15T17:39:23.528Z,3.40
2019-02-15T17:41:53.849Z,3.40
2019-02-15T17:44:24.189Z,3.40
2019-02-15T17:46:55.468Z,3.40
2019-02-15T17:49:26.873Z,3.40
2019-02-15T17:51:57.331Z,3.50
2019-02-15T17:54:27.643Z,3.50
2019-02-15T17:56:58.092Z,3.50
2019-02-15T17:59:28.395Z,3.60
2019-02-15T18:01:58.696Z,3.50
2019-02-15T18:04:29.253Z,3.60
2019-02-15T18:06:59.816Z,3.60
2019-02-15T18:09:30.365Z,3.60
2019-02-15T18:12:00.745Z,3.60
2019-02-15T18:14:31.113Z,3.50
2019-02-15T18:17:01.492Z,3.50
2019-02-15T18:19:32.012Z,3.50
2019-02-15T18:22:03.054Z,3.60
2019-02-15T18:24:34.533Z,3.50
2019-02-15T18:27:04.973Z,3.60
2019-02-15T18:29:35.343Z,3.50
2019-02-15T18:32:05.727Z,3.50
2019-02-15T18:34:36.189Z,3.40
2019-02-15T18:37:06.662Z,3.30
2019-02-15T18:39:37.151Z,3.10
2019-02-15T18:42:07.600Z,3.00
2019-02-15T18:44:37.966Z,2.80
2019-02-15T18:47:08.249Z,2.60
2019-02-15T18:49:38.541Z,2.40
2019-02-15T18:52:09.151Z,2.30
2019-02-15T18:54:39.466Z,2.20
2019-02-15T18:57:09.943Z,2.10
2019-02-15T18:59:40.279Z,2.00
2019-02-15T19:02:10.579Z,2.10
2019-02-15T19:04:41.062Z,2.10
2019-02-15T19:07:11.552Z,2.00
2019-02-15T19:09:42.056Z,1.90
2019-02-15T19:12:12.368Z,1.80
2019-02-15T19:14:42.669Z,1.70
2019-02-15T19:17:13.205Z,1.60
2019-02-15T19:19:43.503Z,1.60
2019-02-15T19:22:15.281Z,1.60
2019-02-15T19:24:45.603Z,1.60
2019-02-15T19:27:16.154Z,1.60
2019-02-15T19:29:46.446Z,1.50
2019-02-15T19:32:17.047Z,1.50
2019-02-15T19:34:47.316Z,1.40
2019-02-15T19:37:18.145Z,1.30
2019-02-15T19:39:48.451Z,1.20
2019-02-15T19:42:21.184Z,1.20
2019-02-15T19:44:51.528Z,1.10
2019-02-15T19:47:22.100Z,1.10
2019-02-15T19:49:53.382Z,1.10
2019-02-15T19:52:24.343Z,1.10
2019-02-15T19:54:54.743Z,1.30
2019-02-15T19:57:25.088Z,1.50
2019-02-15T19:59:55.427Z,1.60
2019-02-15T20:02:25.936Z,1.70
2019-02-15T20:04:57.221Z,1.70
2019-02-15T20:07:28.059Z,1.60
2019-02-15T20:09:58.351Z,1.60
2019-02-15T20:12:28.783Z,1.40
2019-02-15T20:14:59.163Z,1.40
2019-02-15T20:17:29.461Z,1.30
2019-02-15T20:20:00.007Z,1.20
2019-02-15T20:22:30.490Z,1.20
2019-02-15T20:25:00.969Z,1.20
2019-02-15T20:27:31.309Z,1.10
2019-02-15T20:30:03.255Z,1.30
2019-02-15T20:32:33.703Z,1.30
2019-02-15T20:35:04.127Z,1.20
2019-02-15T20:37:34.979Z,1.20
2019-02-15T20:40:05.757Z,1.30
2019-02-15T20:42:36.099Z,1.50
2019-02-15T20:45:08.054Z,1.70
2019-02-15T20:47:38.388Z,1.80
2019-02-15T20:50:09.378Z,1.90
2019-02-15T20:52:40.139Z,1.90
2019-02-15T20:55:11.771Z,2.10
2019-02-15T20:57:43.116Z,2.20
2019-02-15T21:00:15.961Z,2.30
2019-02-15T21:02:46.340Z,2.30
2019-02-15T21:05:16.702Z,2.30
2019-02-15T21:07:47.447Z,2.20
2019-02-15T21:10:17.769Z,2.30
2019-02-15T21:12:48.328Z,2.30
2019-02-15T21:15:18.646Z,2.30
2019-02-15T21:17:49.139Z,2.30
2019-02-15T21:20:19.467Z,2.40
2019-02-15T21:22:50.064Z,2.40
2019-02-15T21:25:20.398Z,2.50
2019-02-15T21:27:50.731Z,2.40
2019-02-15T21:30:21.104Z,2.40
2019-02-15T21:32:51.439Z,2.20
2019-02-15T21:35:21.731Z,2.10
2019-02-15T21:37:52.391Z,1.90
2019-02-15T21:40:22.739Z,2.00
2019-02-15T21:42:53.208Z,1.80
2019-02-15T21:45:24.521Z,1.80
2019-02-15T21:47:55.147Z,2.00
2019-02-15T21:50:25.439Z,2.20
2019-02-15T21:52:56.014Z,2.30
2019-02-15T21:55:26.303Z,2.40
2019-02-15T21:58:01.591Z,2.20
2019-02-15T22:00:28.583Z,2.00
2019-02-15T22:02:58.895Z,1.90
2019-02-15T22:05:29.366Z,1.80
2019-02-15T22:07:59.852Z,1.60
2019-02-15T22:10:30.234Z,1.50
2019-02-15T22:13:00.562Z,1.40
2019-02-15T22:15:31.109Z,1.40
2019-02-15T22:18:01.431Z,1.40
2019-02-15T22:20:31.910Z,1.40
2019-02-15T22:23:02.442Z,1.50
2019-02-15T22:25:32.814Z,1.50
2019-02-15T22:28:03.094Z,1.60
2019-02-15T22:30:33.405Z,1.70
2019-02-15T22:33:03.777Z,1.50
2019-02-15T22:35:34.128Z,1.70
2019-02-15T22:38:04.634Z,1.70
2019-02-15T22:40:37.721Z,1.70
2019-02-15T22:43:10.855Z,2.10
2019-02-15T22:45:41.339Z,2.50
2019-02-15T22:48:11.654Z,2.40
2019-02-15T22:50:42.094Z,2.40
2019-02-15T22:53:12.571Z,2.50
2019-02-15T22:55:43.120Z,2.60
2019-02-15T22:58:13.474Z,2.60
2019-02-15T23:00:59.041Z,2.80
2019-02-15T23:03:29.373Z,2.80
2019-02-15T23:05:59.999Z,2.80
2019-02-15T23:08:30.614Z,2.80
2019-02-15T23:11:01.081Z,2.70
2019-02-15T23:13:31.423Z,2.70
2019-02-15T23:16:01.717Z,2.70
2019-02-15T23:18:32.203Z,2.80
2019-02-15T23:21:02.534Z,2.80
2019-02-15T23:23:33.366Z,2.90
2019-02-15T23:26:03.687Z,2.80
2019-02-15T23:28:34.023Z,2.60
2019-02-15T23:31:04.415Z,2.60
2019-02-15T23:33:34.727Z,2.70
2019-02-15T23:36:05.087Z,2.60
2019-02-15T23:38:35.585Z,2.70
2019-02-15T23:41:06.092Z,2.70
2019-02-15T23:43:36.406Z,2.50
2019-02-15T23:46:06.707Z,2.40
2019-02-15T23:48:37.234Z,2.30
2019-02-15T23:51:07.519Z,2.20
2019-02-15T23:53:38.295Z,2.30
2019-02-15T23:56:08.647Z,2.20
2019-02-15T23:58:39.331Z,2.20
